Time;durP1;ratioP1;P1;durP2;ratioP2;P2;SDS_P1;SDS_P2;PMS_P1;PMS_P2;Temp;Humidity;BMP_temperature;BMP_pressure;BME280_temperature;BME280_humidity;BME280_pressure;Samples;Min_cycle;Max_cycle;Signal;HPM_P1;HPM_P2
2023/10/02 00:03:39;;;;;;;12.07;7.20;;;17.10;99.90;;;;;;5065401;28;20213;-47
2023/10/02 00:06:06;;;;;;;12.50;7.10;;;17.20;99.90;;;;;;5072202;28;20217;-46
2023/10/02 00:08:42;;;;;;;11.40;7.37;;;17.20;99.90;;;;;;5077799;28;20752;-49
2023/10/02 00:14:23;;;;;;;16.07;8.03;;;17.20;99.90;;;;;;5078756;28;20724;-50
2023/10/02 00:17:00;;;;;;;14.10;8.13;;;17.20;99.90;;;;;;5081355;28;20198;-50
2023/10/02 00:19:36;;;;;;;15.27;8.13;;;17.20;99.90;;;;;;5056899;28;21977;-49
2023/10/02 00:22:06;;;;;;;13.87;7.87;;;17.20;99.90;;;;;;5070724;28;20737;-49
2023/10/02 00:24:37;;;;;;;14.10;8.20;;;17.20;99.90;;;;;;5081729;28;20676;-47
2023/10/02 00:27:05;;;;;;;12.83;7.20;;;17.20;99.90;;;;;;5069950;28;20206;-47
2023/10/02 00:29:32;;;;;;;15.73;7.90;;;17.20;99.90;;;;;;5079151;28;20247;-47
2023/10/02 00:31:59;;;;;;;16.63;7.93;;;17.20;99.90;;;;;;5079489;28;20202;-48
2023/10/02 00:34:33;;;;;;;13.63;7.97;;;17.10;99.90;;;;;;5039716;28;20356;-46
2023/10/02 00:37:05;;;;;;;14.33;7.67;;;17.10;99.90;;;;;;5053467;28;20712;-47
2023/10/02 00:39:32;;;;;;;12.83;7.83;;;17.10;99.90;;;;;;5079817;28;20214;-49
2023/10/02 00:44:54;;;;;;;12.07;7.43;;;17.10;99.90;;;;;;5072978;28;20197;-48
2023/10/02 00:47:42;;;;;;;16.40;8.27;;;17.10;99.90;;;;;;5078622;28;20205;-47
2023/10/02 00:50:19;;;;;;;16.70;8.07;;;17.10;99.90;;;;;;5033422;28;20210;-48
2023/10/02 00:52:58;;;;;;;15.60;8.23;;;17.10;99.90;;;;;;5066115;28;20214;-49
2023/10/02 00:55:30;;;;;;;15.90;8.77;;;17.10;99.90;;;;;;5080511;28;20327;-50
2023/10/02 00:57:59;;;;;;;15.80;8.23;;;17.00;99.90;;;;;;5075344;28;20218;-48
2023/10/02 01:00:35;;;;;;;14.83;8.50;;;17.00;99.90;;;;;;5083071;28;20190;-49
2023/10/02 01:03:05;;;;;;;14.70;8.57;;;17.00;99.90;;;;;;5073393;28;20278;-48
2023/10/02 01:05:42;;;;;;;16.87;8.87;;;17.00;99.90;;;;;;5026656;28;20607;-48
2023/10/02 01:08:23;;;;;;;16.07;8.77;;;17.00;99.90;;;;;;5071019;28;20247;-47
2023/10/02 01:10:56;;;;;;;13.83;8.13;;;17.00;99.90;;;;;;5078589;28;20194;-52
2023/10/02 01:13:28;;;;;;;13.60;8.30;;;17.00;99.90;;;;;;5076862;28;20218;-51
2023/10/02 01:15:56;;;;;;;17.20;8.73;;;17.00;99.90;;;;;;5074596;28;20294;-49
2023/10/02 01:18:27;;;;;;;14.57;8.43;;;17.00;99.90;;;;;;5082161;28;20880;-49
2023/10/02 01:20:56;;;;;;;18.20;9.40;;;17.00;99.90;;;;;;5046698;28;20218;-49
2023/10/02 01:23:26;;;;;;;16.57;8.63;;;17.00;99.90;;;;;;5063894;28;20194;-48
2023/10/02 01:25:57;;;;;;;16.03;9.50;;;17.00;99.90;;;;;;5083312;28;20545;-49
2023/10/02 01:28:29;;;;;;;15.70;8.87;;;17.00;99.90;;;;;;5067527;28;20221;-48
2023/10/02 01:30:56;;;;;;;17.37;9.67;;;17.00;99.90;;;;;;5080131;28;20755;-51
2023/10/02 01:33:26;;;;;;;15.20;9.03;;;17.00;99.90;;;;;;5084167;28;20209;-53
2023/10/02 01:35:55;;;;;;;16.00;9.27;;;17.00;99.90;;;;;;5048940;28;20446;-48
2023/10/02 01:38:27;;;;;;;16.87;9.13;;;17.00;99.90;;;;;;5077838;28;20236;-46
2023/10/02 01:41:02;;;;;;;18.93;9.57;;;17.00;99.90;;;;;;5079716;28;20410;-48
2023/10/02 01:43:32;;;;;;;17.17;9.63;;;17.00;99.90;;;;;;5074713;28;20618;-51
2023/10/02 01:46:00;;;;;;;14.33;8.97;;;17.00;99.90;;;;;;5070875;28;20198;-49
2023/10/02 01:48:48;;;;;;;17.13;9.60;;;17.00;99.90;;;;;;5083628;28;20308;-45
2023/10/02 01:51:15;;;;;;;15.50;9.07;;;17.00;99.90;;;;;;5051623;28;20210;-48
2023/10/02 01:53:43;;;;;;;15.60;9.03;;;17.10;99.90;;;;;;5055612;28;20688;-48
2023/10/02 01:56:12;;;;;;;17.27;9.37;;;17.00;99.90;;;;;;5071031;28;20194;-47
2023/10/02 01:58:40;;;;;;;16.07;9.27;;;17.00;99.90;;;;;;5064342;28;20222;-46
2023/10/02 02:01:10;;;;;;;15.83;8.70;;;17.00;99.90;;;;;;5071624;28;20198;-50
2023/10/02 02:03:38;;;;;;;17.50;10.33;;;17.10;99.90;;;;;;5069569;28;20190;-50
2023/10/02 02:06:09;;;;;;;15.53;9.83;;;17.10;99.90;;;;;;5071580;28;20255;-47
2023/10/02 02:08:38;;;;;;;18.40;10.37;;;17.10;99.90;;;;;;5049765;28;20304;-48
2023/10/02 02:11:20;;;;;;;17.93;9.63;;;17.00;99.90;;;;;;5059748;28;20205;-49
2023/10/02 02:13:50;;;;;;;20.63;9.23;;;17.10;99.90;;;;;;5056260;28;20222;-48
2023/10/02 02:16:25;;;;;;;17.30;10.00;;;17.10;99.90;;;;;;5081263;28;20201;-50
2023/10/02 02:18:54;;;;;;;14.70;9.50;;;17.10;99.90;;;;;;5071431;28;20282;-50
2023/10/02 02:21:24;;;;;;;17.77;10.00;;;17.10;99.90;;;;;;5070058;28;20280;-50
2023/10/02 02:24:03;;;;;;;17.57;10.30;;;17.00;99.90;;;;;;5040703;28;20194;-50
2023/10/02 02:26:31;;;;;;;19.93;10.70;;;17.10;99.90;;;;;;5083197;28;20686;-49
2023/10/02 02:28:59;;;;;;;14.50;9.97;;;17.10;99.90;;;;;;5078575;28;20458;-48
2023/10/02 02:31:32;;;;;;;24.03;10.30;;;17.10;99.90;;;;;;5073112;28;20205;-50
2023/10/02 02:34:02;;;;;;;22.33;10.27;;;17.10;99.90;;;;;;5082699;28;20273;-49
2023/10/02 02:36:34;;;;;;;20.17;9.87;;;17.00;99.90;;;;;;5073268;28;20202;-54
2023/10/02 02:39:17;;;;;;;17.30;9.90;;;17.00;99.90;;;;;;5039964;28;20978;-50
2023/10/02 02:41:46;;;;;;;16.03;9.97;;;17.00;99.90;;;;;;5070727;28;20533;-50
2023/10/02 02:44:39;;;;;;;21.30;10.23;;;17.00;99.90;;;;;;5082399;28;20201;-49
2023/10/02 02:47:12;;;;;;;18.67;10.77;;;17.00;99.90;;;;;;5063241;28;20889;-50
2023/10/02 02:49:51;;;;;;;19.70;9.33;;;17.00;99.90;;;;;;5068479;28;20285;-48
2023/10/02 02:52:19;;;;;;;17.23;10.37;;;16.90;99.90;;;;;;5082017;28;20210;-49
2023/10/02 02:54:47;;;;;;;14.60;9.50;;;17.00;99.90;;;;;;5046951;28;20217;-49
2023/10/02 02:57:18;;;;;;;15.57;10.40;;;17.00;99.90;;;;;;5073661;28;20206;-52
2023/10/02 02:59:46;;;;;;;18.67;9.97;;;16.90;99.90;;;;;;5078274;28;20205;-49
2023/10/02 03:02:21;;;;;;;19.47;10.33;;;16.90;99.90;;;;;;5060825;28;20648;-46
2023/10/02 03:04:51;;;;;;;19.87;10.60;;;16.90;99.90;;;;;;5078391;28;20197;-48
2023/10/02 03:07:29;;;;;;;20.63;10.87;;;16.90;99.90;;;;;;5082270;28;20221;-49
2023/10/02 03:09:59;;;;;;;18.90;10.07;;;16.90;99.90;;;;;;5050002;28;21072;-47
2023/10/02 03:12:27;;;;;;;18.13;9.97;;;16.90;99.90;;;;;;5073635;28;20305;-48
2023/10/02 03:14:56;;;;;;;22.17;9.97;;;16.90;99.90;;;;;;5079302;28;20249;-49
2023/10/02 03:17:29;;;;;;;16.40;9.50;;;16.90;99.90;;;;;;5071607;28;20230;-47
2023/10/02 03:19:58;;;;;;;20.30;9.90;;;16.90;99.90;;;;;;5069459;28;20202;-48
2023/10/02 03:22:27;;;;;;;19.40;9.63;;;16.90;99.90;;;;;;5080401;28;20190;-47
2023/10/02 03:24:57;;;;;;;18.80;10.10;;;16.90;99.90;;;;;;5049050;28;20268;-49
2023/10/02 03:27:26;;;;;;;19.23;9.37;;;16.90;99.90;;;;;;5073077;28;20222;-48
2023/10/02 03:29:52;;;;;;;15.87;9.90;;;16.90;99.90;;;;;;5079062;28;20205;-50
2023/10/02 03:32:21;;;;;;;14.50;9.30;;;16.90;99.90;;;;;;5067148;28;20222;-51
2023/10/02 03:35:02;;;;;;;16.43;9.80;;;16.90;99.90;;;;;;5077311;28;20186;-47
2023/10/02 03:37:29;;;;;;;19.03;9.97;;;16.80;99.90;;;;;;5080554;28;20217;-48
2023/10/02 03:40:13;;;;;;;17.77;10.17;;;16.80;99.90;;;;;;5048291;28;20318;-46
2023/10/02 03:42:40;;;;;;;18.13;10.57;;;16.80;99.90;;;;;;5062323;28;20324;-48
2023/10/02 03:45:08;;;;;;;21.47;9.83;;;16.80;99.90;;;;;;5081768;28;20198;-51
2023/10/02 03:47:37;;;;;;;16.00;9.93;;;16.80;99.90;;;;;;5071814;28;20244;-49
2023/10/02 03:50:12;;;;;;;16.93;9.33;;;16.80;99.90;;;;;;5079458;28;20197;-47
2023/10/02 03:52:41;;;;;;;19.23;10.47;;;16.80;99.90;;;;;;5078210;28;20223;-49
2023/10/02 03:55:18;;;;;;;22.07;10.60;;;16.80;99.90;;;;;;5051939;28;20226;-49
2023/10/02 03:57:49;;;;;;;18.17;10.03;;;16.80;99.90;;;;;;5065745;28;20213;-48
2023/10/02 04:00:18;;;;;;;20.10;9.77;;;16.80;99.90;;;;;;5081557;28;20202;-49
2023/10/02 04:02:48;;;;;;;19.13;10.50;;;16.80;99.90;;;;;;5068751;28;20217;-50
2023/10/02 04:05:30;;;;;;;17.60;10.27;;;16.70;99.90;;;;;;5082394;28;20713;-47
2023/10/02 04:08:12;;;;;;;21.53;10.67;;;16.70;99.90;;;;;;5079226;28;20202;-48
2023/10/02 04:10:55;;;;;;;17.43;9.90;;;16.70;99.90;;;;;;5051673;28;20198;-52
2023/10/02 04:13:25;;;;;;;15.90;9.67;;;16.70;99.90;;;;;;5073301;28;20225;-50
2023/10/02 04:16:28;;;;;;;17.43;9.23;;;16.60;99.90;;;;;;5069238;28;20201;-49
2023/10/02 04:18:49;;;;;;;18.10;9.53;;;16.60;99.90;;;;;;5073065;28;20221;-51
2023/10/02 04:21:22;;;;;;;16.63;9.87;;;16.60;99.90;;;;;;5085113;28;20564;-47
2023/10/02 04:23:52;;;;;;;19.17;9.50;;;16.60;99.90;;;;;;5066897;28;20194;-52
2023/10/02 04:26:20;;;;;;;25.93;9.83;;;16.50;99.90;;;;;;5050308;28;20214;-47
2023/10/02 04:28:54;;;;;;;19.63;10.53;;;16.50;99.90;;;;;;5069573;28;20217;-49
2023/10/02 04:31:22;;;;;;;15.87;9.63;;;16.40;99.90;;;;;;5082873;28;20196;-49
2023/10/02 04:34:14;;;;;;;19.40;10.60;;;16.40;99.90;;;;;;5072630;28;20338;-49
2023/10/02 04:36:41;;;;;;;16.83;9.43;;;16.40;99.90;;;;;;5080879;28;20194;-49
2023/10/02 04:39:51;;;;;;;14.67;9.73;;;16.40;99.90;;;;;;5078357;28;20279;-47
2023/10/02 04:42:12;;;;;;;17.50;9.43;;;16.40;99.90;;;;;;5051451;28;20212;-48
2023/10/02 04:44:45;;;;;;;16.33;9.40;;;16.40;99.90;;;;;;5072674;28;20331;-46
2023/10/02 04:47:17;;;;;;;17.30;10.87;;;16.40;99.90;;;;;;5084484;28;20277;-47
2023/10/02 04:52:57;;;;;;;20.17;10.40;;;16.40;99.90;;;;;;5071724;28;20214;-50
2023/10/02 04:55:25;;;;;;;19.73;10.87;;;16.40;99.90;;;;;;5078860;28;20956;-48
2023/10/02 04:57:55;;;;;;;18.57;10.00;;;16.40;99.90;;;;;;5054880;28;20217;-52
2023/10/02 05:00:32;;;;;;;21.67;10.63;;;16.40;99.90;;;;;;5074651;28;20293;-50
2023/10/02 05:03:17;;;;;;;19.67;10.30;;;16.40;99.90;;;;;;5085686;28;20212;-48
2023/10/02 05:05:48;;;;;;;18.73;10.27;;;16.40;99.90;;;;;;5076242;28;20255;-47
2023/10/02 05:08:20;;;;;;;17.47;9.43;;;16.40;99.90;;;;;;5084340;28;20210;-47
2023/10/02 05:10:49;;;;;;;15.40;9.67;;;16.40;99.90;;;;;;5078125;28;20231;-47
2023/10/02 05:16:11;;;;;;;16.30;11.10;;;16.40;99.90;;;;;;5074184;28;20576;-48
2023/10/02 05:18:47;;;;;;;18.30;10.77;;;16.40;99.90;;;;;;5084924;28;20221;-46
2023/10/02 05:21:16;;;;;;;20.53;10.63;;;16.40;99.90;;;;;;5071968;28;20197;-48
2023/10/02 05:23:56;;;;;;;15.13;8.80;;;16.50;99.90;;;;;;5091925;28;20243;-50
2023/10/02 05:26:32;;;;;;;20.13;10.40;;;16.50;99.90;;;;;;5075675;28;20194;-51
2023/10/02 05:29:00;;;;;;;18.33;9.80;;;16.50;99.90;;;;;;5040438;28;20228;-49
2023/10/02 05:31:28;;;;;;;17.37;9.90;;;16.50;99.90;;;;;;5074757;28;20970;-48
2023/10/02 05:33:57;;;;;;;15.87;10.17;;;16.50;99.90;;;;;;5084539;28;20836;-48
2023/10/02 05:36:28;;;;;;;16.50;9.17;;;16.60;99.90;;;;;;5083333;28;20186;-47
2023/10/02 05:41:45;;;;;;;17.43;9.73;;;16.60;99.90;;;;;;5076511;28;20209;-46
2023/10/02 05:44:19;;;;;;;14.60;9.17;;;16.60;99.90;;;;;;5051705;28;20202;-48
2023/10/02 05:46:58;;;;;;;17.67;9.30;;;16.60;99.90;;;;;;5074191;28;20346;-52
2023/10/02 05:49:26;;;;;;;17.93;9.60;;;16.60;99.90;;;;;;5080447;28;20210;-49
2023/10/02 05:51:56;;;;;;;20.07;10.23;;;16.70;99.90;;;;;;5068523;28;20210;-47
2023/10/02 05:54:29;;;;;;;15.07;10.07;;;16.70;99.90;;;;;;5073705;28;20331;-49
2023/10/02 05:57:08;;;;;;;16.70;9.83;;;16.70;99.90;;;;;;5068460;28;20221;-49
2023/10/02 05:59:48;;;;;;;16.20;10.13;;;16.70;99.90;;;;;;5055343;28;20295;-48
2023/10/02 06:02:18;;;;;;;17.73;10.33;;;16.80;99.90;;;;;;5084531;28;20288;-50
2023/10/02 06:04:47;;;;;;;17.83;10.10;;;16.70;99.90;;;;;;5073784;28;20196;-45
2023/10/02 06:07:19;;;;;;;15.90;9.63;;;16.70;99.90;;;;;;5086193;28;20189;-47
2023/10/02 06:09:47;;;;;;;16.73;10.27;;;16.80;99.90;;;;;;5065673;28;20687;-49
2023/10/02 06:12:15;;;;;;;18.67;9.47;;;16.80;99.90;;;;;;5083625;28;20198;-47
2023/10/02 06:14:42;;;;;;;17.57;9.87;;;16.80;99.90;;;;;;5061910;28;20230;-48
2023/10/02 06:17:13;;;;;;;22.03;9.90;;;16.80;99.90;;;;;;5071762;28;20209;-49
2023/10/02 06:19:44;;;;;;;16.73;9.33;;;16.80;99.90;;;;;;5073222;28;20202;-47
2023/10/02 06:22:14;;;;;;;17.87;9.40;;;16.90;99.90;;;;;;5073238;28;20621;-49
2023/10/02 06:24:43;;;;;;;15.97;9.17;;;16.90;99.90;;;;;;5071490;28;20921;-47
2023/10/02 06:27:14;;;;;;;21.60;9.93;;;16.90;99.90;;;;;;5083672;28;20194;-49
2023/10/02 06:29:44;;;;;;;16.00;9.47;;;16.90;99.90;;;;;;5064938;28;20205;-47
2023/10/02 06:32:19;;;;;;;15.53;9.57;;;17.00;99.90;;;;;;5063058;28;20198;-51
2023/10/02 06:34:47;;;;;;;16.23;9.80;;;17.00;99.90;;;;;;5070083;28;20810;-50
2023/10/02 06:37:16;;;;;;;16.10;9.07;;;17.00;99.90;;;;;;5084329;28;20198;-50
2023/10/02 06:39:46;;;;;;;17.77;10.03;;;17.00;99.90;;;;;;5081412;28;20197;-52
2023/10/02 06:42:16;;;;;;;14.37;9.00;;;17.10;99.90;;;;;;5062641;28;20197;-47
2023/10/02 06:44:53;;;;;;;16.70;10.30;;;17.10;99.90;;;;;;5064792;28;20193;-51
2023/10/02 06:47:22;;;;;;;15.60;8.70;;;17.10;99.90;;;;;;5055624;28;20314;-48
2023/10/02 06:49:52;;;;;;;16.93;9.17;;;17.10;99.90;;;;;;5075471;28;20611;-47
2023/10/02 06:52:19;;;;;;;16.07;9.30;;;17.10;99.90;;;;;;5066945;28;20398;-47
2023/10/02 06:54:49;;;;;;;16.07;9.47;;;17.10;99.90;;;;;;5080742;28;20297;-47
2023/10/02 06:57:18;;;;;;;17.30;9.33;;;17.20;99.90;;;;;;5061734;28;20833;-47
2023/10/02 06:59:55;;;;;;;15.80;9.73;;;17.20;99.90;;;;;;5054775;28;20564;-58
2023/10/02 07:02:23;;;;;;;15.23;9.23;;;17.20;99.90;;;;;;5044498;28;20744;-46
2023/10/02 07:04:50;;;;;;;14.17;9.20;;;17.30;99.90;;;;;;5060005;28;20664;-46
2023/10/02 07:07:21;;;;;;;17.80;8.67;;;17.40;99.90;;;;;;5085191;28;20190;-47
2023/10/02 07:09:49;;;;;;;17.17;9.37;;;17.40;99.90;;;;;;5073466;28;21750;-45
2023/10/02 07:12:16;;;;;;;16.23;9.00;;;17.50;99.90;;;;;;5075423;28;20248;-48
2023/10/02 07:14:45;;;;;;;16.57;8.47;;;17.60;99.90;;;;;;5074530;28;20241;-51
2023/10/02 07:17:16;;;;;;;14.57;8.77;;;17.70;99.90;;;;;;5069067;28;20218;-46
2023/10/02 07:19:54;;;;;;;20.07;9.53;;;17.70;99.90;;;;;;5042848;28;20213;-50
2023/10/02 07:22:25;;;;;;;17.53;9.23;;;17.80;99.90;;;;;;5071493;28;20668;-48
2023/10/02 07:24:56;;;;;;;18.93;9.73;;;17.90;99.90;;;;;;5075689;28;20185;-49
2023/10/02 07:27:25;;;;;;;15.63;9.03;;;17.90;99.90;;;;;;5070655;28;20218;-45
2023/10/02 07:29:54;;;;;;;15.80;9.03;;;18.00;99.90;;;;;;5077602;28;20192;-48
2023/10/02 07:32:22;;;;;;;15.30;9.27;;;18.00;99.90;;;;;;5076588;28;20659;-47
2023/10/02 07:34:50;;;;;;;14.77;9.13;;;18.10;99.90;;;;;;5044080;28;20205;-46
2023/10/02 07:37:21;;;;;;;16.23;8.77;;;18.10;99.90;;;;;;5075297;28;20668;-48
2023/10/02 07:39:56;;;;;;;16.83;9.00;;;18.20;99.90;;;;;;5072837;28;20765;-47
2023/10/02 07:42:28;;;;;;;13.73;8.70;;;18.20;99.90;;;;;;5088679;28;20249;-48
2023/10/02 07:45:12;;;;;;;17.37;8.73;;;18.30;99.90;;;;;;5073434;28;21121;-48
2023/10/02 07:48:08;;;;;;;15.73;9.17;;;18.30;99.90;;;;;;5068155;28;20276;-47
2023/10/02 07:50:35;;;;;;;17.27;9.03;;;18.30;99.90;;;;;;5045789;28;20205;-46
2023/10/02 07:53:04;;;;;;;18.30;9.93;;;18.40;99.90;;;;;;5051521;28;20198;-46
2023/10/02 07:55:35;;;;;;;15.80;8.50;;;18.40;99.90;;;;;;5075578;28;20198;-51
2023/10/02 07:58:04;;;;;;;16.90;9.63;;;18.40;99.90;;;;;;5075158;28;20221;-49
2023/10/02 08:00:37;;;;;;;14.60;8.90;;;18.50;99.90;;;;;;5083373;28;20787;-48
2023/10/02 08:03:29;;;;;;;16.07;8.97;;;18.60;99.90;;;;;;5074127;28;20256;-50
2023/10/02 08:05:56;;;;;;;18.20;9.97;;;18.60;99.90;;;;;;5050460;28;20210;-48
2023/10/02 08:08:31;;;;;;;16.40;9.27;;;18.70;99.90;;;;;;5079261;28;20624;-46
2023/10/02 08:11:06;;;;;;;17.73;8.90;;;18.70;99.90;;;;;;5067734;28;20208;-47
2023/10/02 08:13:35;;;;;;;17.00;9.70;;;18.70;99.90;;;;;;5091595;28;20221;-52
2023/10/02 08:16:11;;;;;;;14.30;9.30;;;18.70;99.90;;;;;;5084779;28;20193;-45
2023/10/02 08:18:56;;;;;;;16.97;8.70;;;18.80;99.90;;;;;;5082193;28;20606;-47
2023/10/02 08:21:34;;;;;;;16.20;9.77;;;18.80;99.90;;;;;;5053246;28;20209;-44
2023/10/02 08:24:03;;;;;;;15.07;9.00;;;18.90;99.90;;;;;;5061467;28;20321;-44
2023/10/02 08:26:38;;;;;;;20.27;9.57;;;18.90;99.90;;;;;;5081048;28;20696;-50
2023/10/02 08:29:10;;;;;;;14.27;9.23;;;19.00;99.90;;;;;;5088690;28;20294;-45
2023/10/02 08:31:42;;;;;;;15.20;9.30;;;19.10;99.90;;;;;;5072990;28;20907;-44
2023/10/02 08:34:13;;;;;;;15.63;8.80;;;19.20;99.90;;;;;;5079544;28;20587;-49
2023/10/02 08:36:41;;;;;;;16.60;9.40;;;19.20;99.90;;;;;;5055869;28;20202;-44
2023/10/02 08:39:09;;;;;;;14.73;9.30;;;19.30;99.90;;;;;;5069845;28;20206;-49
2023/10/02 08:41:43;;;;;;;16.77;9.03;;;19.30;99.90;;;;;;5072420;28;20255;-48
2023/10/02 08:44:13;;;;;;;13.50;8.90;;;19.30;99.90;;;;;;5079660;28;20619;-43
2023/10/02 08:46:42;;;;;;;13.80;9.07;;;19.40;99.90;;;;;;5091662;28;20273;-50
2023/10/02 08:49:11;;;;;;;13.90;8.63;;;19.40;99.90;;;;;;5069174;28;20225;-49
2023/10/02 08:51:39;;;;;;;15.93;9.30;;;19.40;99.90;;;;;;5074144;28;21039;-43
2023/10/02 08:54:06;;;;;;;20.13;10.20;;;19.40;99.90;;;;;;5050690;28;20221;-53
2023/10/02 08:56:43;;;;;;;16.70;9.00;;;19.50;99.90;;;;;;5069102;28;20195;-49
2023/10/02 08:59:26;;;;;;;18.00;9.63;;;19.50;99.90;;;;;;5075555;28;20229;-46
2023/10/02 09:02:07;;;;;;;16.73;10.00;;;19.60;99.90;;;;;;5072499;28;20244;-43
2023/10/02 09:04:36;;;;;;;14.90;9.27;;;19.70;99.90;;;;;;5080580;28;20186;-46
2023/10/02 09:07:15;;;;;;;18.07;9.70;;;19.70;99.90;;;;;;5081179;28;20198;-51
2023/10/02 09:09:54;;;;;;;15.13;9.60;;;19.80;99.90;;;;;;5055212;28;20295;-46
2023/10/02 09:12:21;;;;;;;19.27;10.10;;;19.80;99.90;;;;;;5057683;28;20204;-45
2023/10/02 09:14:53;;;;;;;16.63;10.00;;;19.90;99.90;;;;;;5076173;28;20593;-50
2023/10/02 09:17:22;;;;;;;20.73;9.43;;;20.00;99.90;;;;;;5076081;28;20213;-45
2023/10/02 09:20:00;;;;;;;24.57;9.30;;;20.00;99.90;;;;;;5083948;28;20208;-51
2023/10/02 09:22:28;;;;;;;15.23;9.17;;;20.00;99.90;;;;;;5052374;28;20348;-45
2023/10/02 09:24:58;;;;;;;18.70;10.33;;;20.10;99.90;;;;;;5055230;28;20194;-45
2023/10/02 09:27:27;;;;;;;16.90;9.30;;;20.20;99.90;;;;;;5055573;28;20970;-48
2023/10/02 09:32:49;;;;;;;15.80;9.37;;;20.20;99.90;;;;;;5072298;28;20197;-47
2023/10/02 09:35:29;;;;;;;19.08;10.10;;;20.20;99.90;;;;;;5081066;28;20357;-50
2023/10/02 09:38:02;;;;;;;17.80;9.77;;;20.30;99.90;;;;;;5070459;28;20218;-42
2023/10/02 09:40:53;;;;;;;14.13;9.20;;;20.30;99.90;;;;;;5049674;28;20229;-51
2023/10/02 09:43:20;;;;;;;15.60;8.40;;;20.30;99.90;;;;;;5064730;28;20670;-53
2023/10/02 09:45:53;;;;;;;18.23;9.40;;;20.40;99.90;;;;;;5080975;28;20227;-45
2023/10/02 09:51:20;;;;;;;16.90;9.45;;;20.50;99.90;;;;;;5075541;28;20193;-51
2023/10/02 09:54:04;;;;;;;14.50;9.50;;;20.60;99.90;;;;;;5072854;28;20211;-43
2023/10/02 09:57:04;;;;;;;15.93;9.32;;;20.60;99.90;;;;;;5052188;28;20206;-49
2023/10/02 09:59:37;;;;;;;18.55;8.55;;;20.60;99.90;;;;;;5066981;28;20202;-44
2023/10/02 10:10:47;;;;;;;20.30;10.15;;;21.00;99.90;;;;;;5048572;28;20202;-44
2023/10/02 10:13:25;;;;;;;14.65;8.32;;;21.10;99.90;;;;;;5063241;28;20284;-52
2023/10/02 10:16:36;;;;;;;14.95;8.63;;;21.20;99.90;;;;;;5076439;28;20221;-49
2023/10/02 10:22:00;;;;;;;15.65;9.00;;;21.30;99.90;;;;;;5086608;28;20273;-49
2023/10/02 10:24:56;;;;;;;13.48;8.25;;;21.30;99.90;;;;;;5071710;28;20902;-46
2023/10/02 10:28:00;;;;;;;15.95;9.52;;;21.40;99.90;;;;;;5051586;28;20213;-43
2023/10/02 10:30:34;;;;;;;16.75;8.50;;;21.50;99.90;;;;;;5048954;28;20629;-49
2023/10/02 10:33:36;;;;;;;17.30;9.25;;;21.50;99.90;;;;;;5067046;28;20190;-45
2023/10/02 10:36:25;;;;;;;15.00;8.88;;;21.50;99.90;;;;;;5074149;28;20309;-44
2023/10/02 10:38:54;;;;;;;13.90;8.40;;;21.50;99.90;;;;;;5061190;28;20229;-45
2023/10/02 10:41:42;;;;;;;13.68;8.73;;;21.60;99.90;;;;;;5091125;28;20194;-45
2023/10/02 10:44:17;;;;;;;12.55;8.35;;;21.60;99.90;;;;;;5060061;28;21418;-42
2023/10/02 10:46:48;;;;;;;14.10;7.90;;;21.70;99.90;;;;;;5060900;28;20284;-52
2023/10/02 10:49:23;;;;;;;17.20;9.30;;;21.70;99.90;;;;;;5073314;28;20249;-47
2023/10/02 10:51:52;;;;;;;13.57;8.65;;;21.70;99.90;;;;;;5081434;28;20198;-48
2023/10/02 10:54:25;;;;;;;16.85;9.00;;;21.80;99.90;;;;;;5065445;28;20650;-47
2023/10/02 10:57:19;;;;;;;13.88;8.15;;;21.90;99.90;;;;;;5049425;28;20288;-47
2023/10/02 10:59:46;;;;;;;16.13;8.77;;;22.00;99.90;;;;;;5071526;28;20202;-53
2023/10/02 11:02:16;;;;;;;16.35;8.63;;;22.00;99.90;;;;;;5056251;28;20265;-43
2023/10/02 11:04:47;;;;;;;17.33;8.68;;;22.10;99.90;;;;;;5077722;28;20186;-56
2023/10/02 11:07:23;;;;;;;15.45;8.95;;;22.10;99.90;;;;;;5086036;28;20194;-44
2023/10/02 11:12:54;;;;;;;14.93;8.68;;;22.10;99.90;;;;;;5045690;28;20343;-44
2023/10/02 11:15:45;;;;;;;17.10;8.93;;;22.10;99.90;;;;;;5076605;28;20718;-56
2023/10/02 11:18:23;;;;;;;14.10;8.68;;;22.20;99.90;;;;;;5062573;28;20228;-53
2023/10/02 11:20:51;;;;;;;14.27;8.25;;;22.20;99.90;;;;;;5063071;28;20848;-46
2023/10/02 11:23:30;;;;;;;14.00;8.15;;;22.20;99.90;;;;;;5082557;28;20227;-53
2023/10/02 11:25:58;;;;;;;15.68;8.07;;;22.20;99.90;;;;;;5074720;28;20198;-49
2023/10/02 11:28:30;;;;;;;11.48;7.88;;;22.30;99.90;;;;;;5050898;28;20688;-54
2023/10/02 11:31:29;;;;;;;14.00;8.27;;;22.30;99.90;;;;;;5058831;28;20224;-44
2023/10/02 11:34:02;;;;;;;13.88;7.80;;;22.40;99.90;;;;;;5087945;28;20190;-45
2023/10/02 11:36:33;;;;;;;10.35;7.30;;;22.50;99.90;;;;;;5060451;28;20268;-49
2023/10/02 11:39:08;;;;;;;12.55;7.78;;;22.50;99.90;;;;;;5082395;28;20840;-46
2023/10/02 11:41:37;;;;;;;14.25;7.95;;;22.50;99.90;;;;;;5069471;28;20197;-52
2023/10/02 11:44:05;;;;;;;11.60;7.60;;;22.50;99.90;;;;;;5052198;28;20202;-47
2023/10/02 11:46:32;;;;;;;14.27;8.25;;;22.50;99.90;;;;;;5062395;28;22046;-43
2023/10/02 11:48:59;;;;;;;14.15;8.05;;;22.50;99.90;;;;;;5070774;28;20237;-43
2023/10/02 11:51:29;;;;;;;13.07;8.23;;;22.60;99.90;;;;;;5080308;28;20650;-56
2023/10/02 11:53:57;;;;;;;15.95;8.30;;;22.60;99.90;;;;;;5064199;28;20206;-57
2023/10/02 11:56:25;;;;;;;12.25;7.85;;;22.60;99.90;;;;;;5078238;28;20218;-48
2023/10/02 11:58:53;;;;;;;14.65;7.40;;;22.60;99.90;;;;;;5055293;28;20712;-56
2023/10/02 12:01:22;;;;;;;11.95;7.32;;;22.70;99.90;;;;;;5072235;28;20198;-47
2023/10/02 12:03:49;;;;;;;13.18;7.32;;;22.80;99.90;;;;;;5059004;28;20202;-48
2023/10/02 12:06:17;;;;;;;14.77;8.30;;;22.90;99.90;;;;;;5080380;28;20186;-47
2023/10/02 12:08:45;;;;;;;11.45;7.72;;;22.80;99.90;;;;;;5071459;28;20226;-52
2023/10/02 12:11:13;;;;;;;12.15;7.43;;;22.80;99.90;;;;;;5068051;28;20194;-51
2023/10/02 12:13:42;;;;;;;12.88;6.97;;;22.80;99.90;;;;;;5072817;28;20206;-48
2023/10/02 12:16:11;;;;;;;12.38;7.30;;;22.90;99.90;;;;;;5047587;28;20854;-47
2023/10/02 12:18:38;;;;;;;11.75;7.75;;;22.90;99.90;;;;;;5064447;28;20222;-48
2023/10/02 12:21:09;;;;;;;11.38;7.28;;;22.90;99.90;;;;;;5076645;28;20205;-50
2023/10/02 12:23:39;;;;;;;14.88;7.50;;;22.80;99.90;;;;;;5081692;28;20243;-47
2023/10/02 12:26:09;;;;;;;12.38;7.60;;;22.70;99.90;;;;;;5060281;28;20190;-49
2023/10/02 12:28:37;;;;;;;15.65;8.32;;;22.70;99.90;;;;;;5072342;28;20222;-48
2023/10/02 12:31:10;;;;;;;13.68;7.60;;;22.70;99.90;;;;;;5045132;28;20937;-48
2023/10/02 12:33:38;;;;;;;12.55;7.13;;;22.70;99.90;;;;;;5066369;28;20213;-47
2023/10/02 12:36:17;;;;;;;12.23;7.28;;;22.60;99.90;;;;;;5075446;28;20259;-47
2023/10/02 12:38:44;;;;;;;12.10;7.40;;;22.70;99.90;;;;;;5064665;28;20221;-50
2023/10/02 12:41:13;;;;;;;14.95;8.13;;;22.70;99.90;;;;;;5060126;28;20278;-47
2023/10/02 12:43:40;;;;;;;12.43;7.75;;;22.80;99.90;;;;;;5071616;28;20202;-48
2023/10/02 12:46:07;;;;;;;12.82;7.35;;;22.80;99.90;;;;;;5046844;28;20916;-47
2023/10/02 12:48:35;;;;;;;14.10;7.97;;;22.90;99.90;;;;;;5081182;28;20222;-50
2023/10/02 12:51:05;;;;;;;12.18;7.97;;;23.00;99.90;;;;;;5058871;28;20224;-48
2023/10/02 12:53:32;;;;;;;12.77;7.65;;;23.10;99.90;;;;;;5087640;28;20201;-47
2023/10/02 12:55:59;;;;;;;13.05;8.07;;;23.30;99.90;;;;;;5072580;28;20302;-49
2023/10/02 12:58:27;;;;;;;11.85;8.05;;;23.40;99.90;;;;;;5078714;28;20225;-48
2023/10/02 13:00:54;;;;;;;13.63;8.18;;;22.80;99.90;;;;;;5028408;28;20202;-51
2023/10/02 13:03:24;;;;;;;17.00;8.88;;;23.50;99.90;;;;;;5076538;28;20269;-51
2023/10/02 13:05:52;;;;;;;13.63;7.95;;;23.40;99.90;;;;;;5068486;28;20213;-49
2023/10/02 13:08:20;;;;;;;14.50;8.38;;;23.40;99.90;;;;;;5078568;28;20221;-47
2023/10/02 13:10:48;;;;;;;13.23;7.85;;;23.60;99.90;;;;;;5073417;28;20216;-47
2023/10/02 13:13:14;;;;;;;12.43;7.35;;;23.60;99.90;;;;;;5075052;28;20243;-49
2023/10/02 13:15:41;;;;;;;14.25;8.75;;;23.60;99.90;;;;;;5077657;28;20214;-49
2023/10/02 13:18:08;;;;;;;16.92;8.40;;;23.50;99.90;;;;;;5049176;28;21593;-49
2023/10/02 13:20:36;;;;;;;14.75;9.00;;;23.50;99.90;;;;;;5068520;28;20206;-47
2023/10/02 13:23:04;;;;;;;15.23;7.72;;;23.30;99.90;;;;;;5071461;28;20209;-52
2023/10/02 13:25:31;;;;;;;15.43;9.27;;;23.30;99.90;;;;;;5083915;28;20202;-50
2023/10/02 13:27:59;;;;;;;14.45;8.05;;;23.40;99.90;;;;;;5068492;28;22319;-52
2023/10/02 13:30:30;;;;;;;12.73;8.45;;;23.30;99.90;;;;;;5082322;28;20257;-52
2023/10/02 13:32:56;;;;;;;12.95;7.90;;;23.30;99.90;;;;;;5058868;28;20228;-49
2023/10/02 13:35:23;;;;;;;12.02;8.00;;;23.30;99.90;;;;;;5088885;28;20259;-49
2023/10/02 13:37:52;;;;;;;14.75;7.40;;;23.40;99.90;;;;;;5072909;28;20219;-49
2023/10/02 13:40:31;;;;;;;15.40;8.55;;;23.30;99.90;;;;;;5076049;28;20205;-49